createdAt,value
2022-11-01T00:04:27.338Z,959.70
2022-11-01T00:10:00.384Z,959.74
2022-11-01T00:15:32.540Z,959.72
2022-11-01T00:21:04.121Z,959.76
2022-11-01T00:26:35.703Z,959.78
2022-11-01T00:32:07.379Z,959.78
2022-11-01T00:37:39.175Z,959.80
2022-11-01T00:48:40.441Z,959.72
2022-11-01T00:54:12.692Z,959.70
2022-11-01T00:59:44.638Z,959.70
2022-11-01T01:05:16.495Z,959.67
2022-11-01T01:10:48.362Z,959.65
2022-11-01T01:16:19.969Z,959.61
2022-11-01T01:21:51.904Z,959.61
2022-11-01T01:32:53.173Z,959.51
2022-11-01T01:38:25.041Z,959.51
2022-11-01T01:43:56.635Z,959.49
2022-11-01T01:49:28.669Z,959.47
2022-11-01T01:55:00.506Z,959.41
2022-11-01T02:00:32.415Z,959.37
2022-11-01T02:06:04.229Z,959.35
2022-11-01T02:11:36.320Z,959.33
2022-11-01T02:17:09.607Z,959.33
2022-11-01T02:22:40.105Z,959.33
2022-11-01T02:28:11.897Z,959.35
2022-11-01T02:33:43.800Z,959.37
2022-11-01T02:44:47.119Z,959.47
2022-11-01T02:50:19.017Z,959.49
2022-11-01T02:55:50.798Z,959.49
2022-11-01T03:01:24.082Z,959.53
2022-11-01T03:06:55.746Z,959.57
2022-11-01T03:17:59.686Z,959.72
2022-11-01T03:23:31.602Z,959.74
2022-11-01T03:34:35.497Z,959.80
2022-11-01T03:40:07.025Z,959.82
2022-11-01T03:45:39.040Z,959.82
2022-11-01T03:51:10.929Z,959.84
2022-11-01T03:56:42.541Z,959.86
2022-11-01T04:02:14.833Z,959.92
2022-11-01T04:07:46.830Z,959.92
2022-11-01T04:13:18.875Z,959.98
2022-11-01T04:18:50.982Z,960.08
2022-11-01T04:24:22.965Z,960.18
2022-11-01T04:29:54.904Z,960.23
2022-11-01T04:35:27.091Z,960.29
2022-11-01T04:40:59.411Z,960.37
2022-11-01T04:46:31.473Z,960.41
2022-11-01T04:52:03.532Z,960.41
2022-11-01T04:57:35.629Z,960.49
2022-11-01T05:03:07.302Z,960.51
2022-11-01T05:08:39.149Z,960.55
2022-11-01T05:14:11.492Z,960.53
2022-11-01T05:19:43.590Z,960.55
2022-11-01T05:25:15.382Z,960.59
2022-11-01T05:30:47.056Z,960.65
2022-11-01T05:36:18.854Z,960.70
2022-11-01T05:41:50.492Z,960.72
2022-11-01T05:47:22.295Z,960.80
2022-11-01T05:52:54.240Z,960.86
2022-11-01T05:55:06.425Z,961.02
2022-11-01T06:00:38.781Z,961.04
2022-11-01T06:06:10.647Z,961.10
2022-11-01T06:11:42.270Z,961.17
2022-11-01T06:17:14.949Z,961.25
2022-11-01T06:22:46.913Z,961.33
2022-11-01T06:28:18.637Z,961.49
2022-11-01T06:33:50.587Z,961.71
2022-11-01T06:39:22.289Z,961.80
2022-11-01T06:44:54.218Z,961.88
2022-11-01T06:50:26.090Z,961.98
2022-11-01T06:55:57.891Z,962.04
2022-11-01T07:01:29.636Z,962.16
2022-11-01T07:07:01.334Z,962.27
2022-11-01T07:12:33.057Z,962.39
2022-11-01T07:18:05.046Z,962.47
2022-11-01T07:23:36.535Z,962.53
2022-11-01T07:29:08.271Z,962.61
2022-11-01T07:34:40.222Z,962.71
2022-11-01T07:40:11.951Z,962.80
2022-11-01T07:45:43.850Z,962.88
2022-11-01T07:51:15.476Z,962.94
2022-11-01T07:56:47.209Z,962.94
2022-11-01T08:02:19.164Z,963.00
2022-11-01T08:07:50.717Z,962.96
2022-11-01T08:13:22.488Z,962.96
2022-11-01T08:15:45.708Z,962.84
2022-11-01T08:21:17.223Z,962.84
2022-11-01T08:26:49.308Z,962.86
2022-11-01T08:32:20.925Z,962.86
2022-11-01T08:37:52.698Z,962.90
2022-11-01T08:43:24.833Z,962.92
2022-11-01T08:48:56.888Z,962.94
2022-11-01T09:00:00.923Z,962.96
2022-11-01T09:05:32.875Z,962.96
2022-11-01T09:11:04.598Z,963.02
2022-11-01T09:16:36.345Z,963.02
2022-11-01T09:22:08.066Z,963.04
2022-11-01T09:27:39.867Z,963.00
2022-11-01T09:33:11.612Z,962.96
2022-11-01T09:44:14.747Z,962.86
2022-11-01T09:49:46.615Z,962.80
2022-11-01T10:00:49.902Z,962.74
2022-11-01T10:06:21.240Z,962.74
2022-11-01T10:11:53.107Z,962.76
2022-11-01T10:17:24.870Z,962.82
2022-11-01T10:22:56.691Z,962.88
2022-11-01T10:28:28.432Z,962.96
2022-11-01T10:33:59.941Z,962.98
2022-11-01T10:50:34.570Z,963.00
2022-11-01T10:56:06.257Z,962.98
2022-11-01T11:01:38.244Z,962.94
2022-11-01T11:07:09.692Z,962.94
2022-11-01T11:12:50.098Z,962.92
2022-11-01T11:34:56.859Z,962.86
2022-11-01T11:40:28.523Z,962.88
2022-11-01T11:46:00.427Z,962.82
2022-11-01T11:51:32.023Z,962.80
2022-11-01T11:57:03.831Z,962.82
2022-11-01T12:02:35.146Z,962.82
2022-11-01T12:13:39.617Z,962.84
2022-11-01T12:19:12.945Z,962.86
2022-11-01T12:24:44.281Z,962.88
2022-11-01T12:30:15.968Z,962.88
2022-11-01T12:35:47.459Z,962.86
2022-11-01T12:46:48.269Z,962.88
2022-11-01T12:52:19.577Z,962.86
2022-11-01T13:03:20.539Z,962.84
2022-11-01T13:08:52.402Z,962.84
2022-11-01T13:14:24.224Z,962.82
2022-11-01T13:19:56.155Z,962.80
2022-11-01T13:25:28.051Z,962.82
2022-11-01T13:30:59.962Z,962.80
2022-11-01T13:36:31.859Z,962.80
2022-11-01T13:42:03.902Z,962.82
2022-11-01T13:47:36.065Z,962.82
2022-11-01T13:53:08.116Z,962.86
2022-11-01T13:58:39.727Z,962.84
2022-11-01T14:04:11.458Z,962.86
2022-11-01T14:09:43.500Z,962.90
2022-11-01T14:15:15.855Z,962.88
2022-11-01T14:20:47.996Z,962.90
2022-11-01T14:26:20.387Z,962.88
2022-11-01T14:31:52.875Z,962.90
2022-11-01T14:37:24.788Z,962.90
2022-11-01T14:42:56.931Z,962.90
2022-11-01T14:48:29.013Z,962.92
2022-11-01T14:54:01.148Z,962.96
2022-11-01T14:59:33.515Z,962.96
2022-11-01T15:05:05.697Z,962.98
2022-11-01T15:10:37.765Z,962.96
2022-11-01T15:16:09.980Z,962.98
2022-11-01T15:21:46.634Z,963.00
2022-11-01T15:27:14.439Z,963.00
2022-11-01T15:32:46.554Z,963.06
2022-11-01T15:38:20.975Z,963.10
2022-11-01T15:43:50.047Z,963.16
2022-11-01T15:49:21.979Z,963.16
2022-11-01T15:54:53.995Z,963.18
2022-11-01T16:00:26.460Z,963.18
2022-11-01T16:05:59.751Z,963.24
2022-11-01T16:11:29.903Z,963.24
2022-11-01T16:17:01.811Z,963.29
2022-11-01T16:22:33.602Z,963.31
2022-11-01T16:28:05.370Z,963.37
2022-11-01T16:33:36.927Z,963.41
2022-11-01T16:39:08.789Z,963.47
2022-11-01T16:44:40.377Z,963.53
2022-11-01T16:50:12.497Z,963.59
2022-11-01T16:55:44.701Z,963.69
2022-11-01T17:01:16.521Z,963.76
2022-11-01T17:06:48.250Z,963.86
2022-11-01T17:12:20.423Z,963.94
2022-11-01T17:17:52.541Z,963.98
2022-11-01T17:23:24.196Z,964.04
2022-11-01T17:28:56.023Z,964.06
2022-11-01T17:34:27.796Z,964.08
2022-11-01T17:39:59.965Z,964.14
2022-11-01T17:45:31.903Z,964.16
2022-11-01T17:51:03.462Z,964.28
2022-11-01T17:56:35.490Z,964.30
2022-11-01T18:02:07.972Z,964.33
2022-11-01T18:07:40.086Z,964.33
2022-11-01T18:13:11.692Z,964.33
2022-11-01T18:18:44.963Z,964.32
2022-11-01T18:24:22.025Z,964.35
2022-11-01T18:29:48.395Z,964.37
2022-11-01T18:35:20.261Z,964.39
2022-11-01T18:40:52.001Z,964.41
2022-11-01T18:46:25.878Z,964.41
2022-11-01T18:51:55.930Z,964.43
2022-11-01T18:57:27.792Z,964.49
2022-11-01T19:02:59.799Z,964.47
2022-11-01T19:08:31.799Z,964.47
2022-11-01T19:14:03.557Z,964.47
2022-11-01T19:19:35.336Z,964.45
2022-11-01T19:25:07.116Z,964.45
2022-11-01T19:30:39.048Z,964.41
2022-11-01T19:36:10.772Z,964.39
2022-11-01T19:41:42.579Z,964.33
2022-11-01T19:47:16.122Z,964.32
2022-11-01T19:52:47.660Z,964.33
2022-11-01T20:03:48.016Z,964.43
2022-11-01T20:09:19.914Z,964.45
2022-11-01T20:14:51.425Z,964.51
2022-11-01T20:20:23.256Z,964.53
2022-11-01T20:25:54.969Z,964.57
2022-11-01T20:31:26.924Z,964.67
2022-11-01T20:37:28.788Z,964.69
2022-11-01T20:42:30.667Z,964.69
2022-11-01T20:48:02.206Z,964.75
2022-11-01T20:53:33.897Z,964.77
2022-11-01T20:59:05.930Z,964.81
2022-11-01T21:04:37.926Z,964.85
2022-11-01T21:10:10.116Z,964.83
2022-11-01T21:15:41.854Z,964.85
2022-11-01T21:21:13.651Z,964.87
2022-11-01T21:26:45.641Z,964.90
2022-11-01T21:28:57.008Z,964.94
2022-11-01T21:40:04.273Z,964.92
2022-11-01T21:45:30.141Z,964.90
2022-11-01T21:49:51.448Z,964.85
2022-11-01T21:55:23.159Z,964.83
2022-11-01T22:00:54.910Z,964.83
2022-11-01T22:06:26.752Z,964.79
2022-11-01T22:11:58.780Z,964.83
2022-11-01T22:17:30.447Z,964.81
2022-11-01T22:23:02.487Z,964.79
2022-11-01T22:28:34.179Z,964.75
2022-11-01T22:34:06.249Z,964.75
2022-11-01T22:39:38.154Z,964.75
2022-11-01T22:45:09.998Z,964.75
2022-11-01T22:50:41.819Z,964.79
2022-11-01T22:56:13.543Z,964.77
2022-11-01T23:01:45.488Z,964.79
